sensor_id;sensor_type;location;lat;lon;timestamp;pressure;altitude;pressure_sealevel;temperature;humidity
46886;BME280;32622;48.202;11.326;2023-04-26T00:03:02;1018.48;;;8.75;37.14
46886;BME280;32622;48.202;11.326;2023-04-26T00:12:04;1018.49;;;8.47;37.67
46886;BME280;32622;48.202;11.326;2023-04-26T00:15:02;1018.52;;;8.34;37.45
46886;BME280;32622;48.202;11.326;2023-04-26T00:19:13;1018.34;;;9.02;37.26
46886;BME280;32622;48.202;11.326;2023-04-26T00:23:30;1018.39;;;8.74;37.31
46886;BME280;32622;48.202;11.326;2023-04-26T00:31:39;1018.49;;;8.42;37.38
46886;BME280;32622;48.202;11.326;2023-04-26T00:36:55;1018.46;;;8.82;36.94
46886;BME280;32622;48.202;11.326;2023-04-26T00:40:50;1018.37;;;9.19;36.57
46886;BME280;32622;48.202;11.326;2023-04-26T00:53:14;1018.49;;;8.69;36.90
46886;BME280;32622;48.202;11.326;2023-04-26T01:03:25;1018.54;;;8.63;37.26
46886;BME280;32622;48.202;11.326;2023-04-26T01:09:18;1018.66;;;8.39;37.39
46886;BME280;32622;48.202;11.326;2023-04-26T01:12:27;1018.72;;;8.02;37.17
46886;BME280;32622;48.202;11.326;2023-04-26T01:15:36;1018.56;;;8.82;36.75
46886;BME280;32622;48.202;11.326;2023-04-26T01:19:22;1018.62;;;8.39;36.68
46886;BME280;32622;48.202;11.326;2023-04-26T01:29:45;1018.70;;;8.51;37.52
46886;BME280;32622;48.202;11.326;2023-04-26T01:39:43;1018.70;;;8.50;37.60
46886;BME280;32622;48.202;11.326;2023-04-26T01:43:17;1018.99;;;7.49;37.26
46886;BME280;32622;48.202;11.326;2023-04-26T01:48:38;1018.79;;;8.61;37.72
46886;BME280;32622;48.202;11.326;2023-04-26T01:51:34;1018.86;;;8.33;37.73
46886;BME280;32622;48.202;11.326;2023-04-26T02:12:22;1018.85;;;7.93;38.07
46886;BME280;32622;48.202;11.326;2023-04-26T02:23:58;1018.92;;;7.92;38.32
46886;BME280;32622;48.202;11.326;2023-04-26T02:29:17;1018.72;;;8.70;37.68
46886;BME280;32622;48.202;11.326;2023-04-26T02:57:38;1018.76;;;7.81;38.35
46886;BME280;32622;48.202;11.326;2023-04-26T03:02:57;1018.61;;;8.28;37.53
46886;BME280;32622;48.202;11.326;2023-04-26T03:06:49;1018.71;;;8.00;37.18
46886;BME280;32622;48.202;11.326;2023-04-26T03:25:33;1018.85;;;7.58;37.81
46886;BME280;32622;48.202;11.326;2023-04-26T03:43:50;1019.00;;;7.46;38.29
46886;BME280;32622;48.202;11.326;2023-04-26T03:47:39;1018.79;;;7.94;37.25
46886;BME280;32622;48.202;11.326;2023-04-26T03:50:26;1018.88;;;7.44;38.25
46886;BME280;32622;48.202;11.326;2023-04-26T03:53:14;1018.86;;;7.73;38.01
46886;BME280;32622;48.202;11.326;2023-04-26T04:08:13;1019.00;;;7.72;37.70
46886;BME280;32622;48.202;11.326;2023-04-26T04:17:08;1018.84;;;8.25;37.29
46886;BME280;32622;48.202;11.326;2023-04-26T04:22:55;1019.06;;;7.61;37.30
46886;BME280;32622;48.202;11.326;2023-04-26T04:28:17;1019.12;;;7.63;37.17
46886;BME280;32622;48.202;11.326;2023-04-26T04:30:20;1019.57;;;5.70;37.06
46886;BME280;32622;48.202;11.326;2023-04-26T04:32:22;1019.61;;;5.68;36.41
46886;BME280;32622;48.202;11.326;2023-04-26T04:34:24;1019.44;;;6.69;35.78
46886;BME280;32622;48.202;11.326;2023-04-26T04:36:27;1019.61;;;6.06;35.84
46886;BME280;32622;48.202;11.326;2023-04-26T04:38:30;1019.42;;;7.01;35.44
46886;BME280;32622;48.202;11.326;2023-04-26T04:40:32;1019.47;;;6.68;34.90
46886;BME280;32622;48.202;11.326;2023-04-26T04:42:35;1019.29;;;7.35;34.41
46886;BME280;32622;48.202;11.326;2023-04-26T04:44:37;1019.33;;;7.24;34.45
46886;BME280;32622;48.202;11.326;2023-04-26T04:46:40;1019.33;;;7.30;34.36
46886;BME280;32622;48.202;11.326;2023-04-26T04:48:42;1019.45;;;6.96;34.54
46886;BME280;32622;48.202;11.326;2023-04-26T04:50:45;1019.42;;;7.17;34.32
46886;BME280;32622;48.202;11.326;2023-04-26T04:52:48;1019.42;;;7.32;34.04
46886;BME280;32622;48.202;11.326;2023-04-26T04:54:51;1019.47;;;7.27;34.14
46886;BME280;32622;48.202;11.326;2023-04-26T04:56:54;1019.42;;;7.54;33.89
46886;BME280;32622;48.202;11.326;2023-04-26T04:58:57;1019.47;;;7.35;33.23
46886;BME280;32622;48.202;11.326;2023-04-26T05:01:00;1019.51;;;7.44;33.33
46886;BME280;32622;48.202;11.326;2023-04-26T05:03:03;1019.43;;;7.71;33.30
46886;BME280;32622;48.202;11.326;2023-04-26T05:05:06;1019.38;;;8.07;33.42
46886;BME280;32622;48.202;11.326;2023-04-26T05:07:09;1019.61;;;7.00;33.70
46886;BME280;32622;48.202;11.326;2023-04-26T05:09:12;1019.53;;;7.39;33.56
46886;BME280;32622;48.202;11.326;2023-04-26T05:11:16;1019.61;;;7.00;33.28
46886;BME280;32622;48.202;11.326;2023-04-26T05:13:18;1019.60;;;7.12;33.56
46886;BME280;32622;48.202;11.326;2023-04-26T05:15:21;1019.65;;;6.98;33.77
46886;BME280;32622;48.202;11.326;2023-04-26T05:17:24;1019.59;;;7.31;33.86
46886;BME280;32622;48.202;11.326;2023-04-26T05:19:27;1019.48;;;7.53;33.74
46886;BME280;32622;48.202;11.326;2023-04-26T05:21:30;1019.50;;;7.57;33.60
46886;BME280;32622;48.202;11.326;2023-04-26T05:23:33;1019.66;;;7.12;34.36
46886;BME280;32622;48.202;11.326;2023-04-26T05:25:37;1019.68;;;7.06;34.25
46886;BME280;32622;48.202;11.326;2023-04-26T05:27:40;1019.55;;;7.70;33.51
46886;BME280;32622;48.202;11.326;2023-04-26T05:29:43;1019.68;;;7.24;35.86
46886;BME280;32622;48.202;11.326;2023-04-26T05:31:46;1019.47;;;8.03;33.76
46886;BME280;32622;48.202;11.326;2023-04-26T05:33:49;1019.54;;;7.86;33.23
46886;BME280;32622;48.202;11.326;2023-04-26T05:35:52;1019.59;;;7.62;33.40
46886;BME280;32622;48.202;11.326;2023-04-26T05:37:55;1019.66;;;7.39;33.92
46886;BME280;32622;48.202;11.326;2023-04-26T05:39:58;1019.78;;;7.05;34.52
46886;BME280;32622;48.202;11.326;2023-04-26T05:42:01;1019.59;;;7.81;33.86
46886;BME280;32622;48.202;11.326;2023-04-26T05:44:04;1019.38;;;8.46;33.73
46886;BME280;32622;48.202;11.326;2023-04-26T05:46:07;1019.57;;;7.76;33.63
46886;BME280;32622;48.202;11.326;2023-04-26T05:48:10;1019.58;;;7.86;33.69
46886;BME280;32622;48.202;11.326;2023-04-26T05:50:13;1019.49;;;8.20;33.59
46886;BME280;32622;48.202;11.326;2023-04-26T05:52:16;1019.58;;;7.84;33.83
46886;BME280;32622;48.202;11.326;2023-04-26T05:54:19;1019.43;;;8.64;33.32
46886;BME280;32622;48.202;11.326;2023-04-26T05:56:22;1019.49;;;8.45;33.15
46886;BME280;32622;48.202;11.326;2023-04-26T05:58:25;1019.57;;;8.25;32.92
46886;BME280;32622;48.202;11.326;2023-04-26T06:00:28;1019.46;;;8.83;33.00
46886;BME280;32622;48.202;11.326;2023-04-26T06:02:31;1019.53;;;8.63;33.12
46886;BME280;32622;48.202;11.326;2023-04-26T06:04:34;1019.54;;;8.73;32.78
46886;BME280;32622;48.202;11.326;2023-04-26T06:06:37;1019.53;;;8.71;32.68
46886;BME280;32622;48.202;11.326;2023-04-26T06:08:41;1019.54;;;8.64;32.82
46886;BME280;32622;48.202;11.326;2023-04-26T06:10:45;1019.63;;;8.37;32.69
46886;BME280;32622;48.202;11.326;2023-04-26T06:12:48;1019.50;;;8.93;32.35
46886;BME280;32622;48.202;11.326;2023-04-26T06:14:51;1019.49;;;8.80;32.14
46886;BME280;32622;48.202;11.326;2023-04-26T06:16:54;1019.47;;;8.85;32.05
46886;BME280;32622;48.202;11.326;2023-04-26T06:18:57;1019.43;;;8.95;31.83
46886;BME280;32622;48.202;11.326;2023-04-26T06:21:00;1019.47;;;8.87;32.39
46886;BME280;32622;48.202;11.326;2023-04-26T06:23:02;1019.43;;;9.03;32.76
46886;BME280;32622;48.202;11.326;2023-04-26T06:25:07;1019.33;;;9.52;32.15
46886;BME280;32622;48.202;11.326;2023-04-26T06:27:10;1019.32;;;9.56;31.61
46886;BME280;32622;48.202;11.326;2023-04-26T06:29:12;1019.24;;;9.98;31.48
46886;BME280;32622;48.202;11.326;2023-04-26T06:31:15;1019.16;;;10.53;31.91
46886;BME280;32622;48.202;11.326;2023-04-26T06:33:18;1019.00;;;11.14;29.88
46886;BME280;32622;48.202;11.326;2023-04-26T06:35:21;1019.06;;;10.86;29.71
46886;BME280;32622;48.202;11.326;2023-04-26T06:37:24;1019.14;;;10.47;29.16
46886;BME280;32622;48.202;11.326;2023-04-26T06:39:27;1019.15;;;10.75;28.94
46886;BME280;32622;48.202;11.326;2023-04-26T06:41:30;1019.14;;;10.82;29.22
46886;BME280;32622;48.202;11.326;2023-04-26T06:43:33;1019.10;;;11.08;28.02
46886;BME280;32622;48.202;11.326;2023-04-26T06:45:36;1019.11;;;10.89;28.43
46886;BME280;32622;48.202;11.326;2023-04-26T06:47:39;1019.18;;;10.49;28.45
46886;BME280;32622;48.202;11.326;2023-04-26T06:49:48;1019.26;;;10.23;29.14
46886;BME280;32622;48.202;11.326;2023-04-26T06:51:51;1019.19;;;10.73;28.65
46886;BME280;32622;48.202;11.326;2023-04-26T06:53:54;1019.27;;;10.48;29.10
46886;BME280;32622;48.202;11.326;2023-04-26T06:55:57;1019.20;;;10.77;29.57
46886;BME280;32622;48.202;11.326;2023-04-26T06:58:00;1019.27;;;10.46;29.43
46886;BME280;32622;48.202;11.326;2023-04-26T07:00:03;1019.33;;;10.21;30.30
46886;BME280;32622;48.202;11.326;2023-04-26T07:02:06;1019.44;;;9.73;29.77
46886;BME280;32622;48.202;11.326;2023-04-26T07:04:09;1019.43;;;9.74;29.84
46886;BME280;32622;48.202;11.326;2023-04-26T07:06:12;1019.32;;;10.20;28.55
46886;BME280;32622;48.202;11.326;2023-04-26T07:08:15;1019.37;;;10.06;28.94
46886;BME280;32622;48.202;11.326;2023-04-26T07:10:18;1019.49;;;9.62;28.93
46886;BME280;32622;48.202;11.326;2023-04-26T07:12:21;1019.27;;;10.44;29.59
46886;BME280;32622;48.202;11.326;2023-04-26T07:14:23;1019.28;;;10.37;29.68
46886;BME280;32622;48.202;11.326;2023-04-26T07:16:26;1019.28;;;10.45;29.93
46886;BME280;32622;48.202;11.326;2023-04-26T07:18:29;1019.31;;;10.53;29.64
46886;BME280;32622;48.202;11.326;2023-04-26T07:20:32;1019.43;;;10.01;29.83
46886;BME280;32622;48.202;11.326;2023-04-26T07:22:35;1019.33;;;10.33;29.55
46886;BME280;32622;48.202;11.326;2023-04-26T07:24:37;1019.34;;;10.18;29.34
46886;BME280;32622;48.202;11.326;2023-04-26T07:26:40;1019.30;;;10.40;28.88
46886;BME280;32622;48.202;11.326;2023-04-26T07:28:42;1019.45;;;9.78;29.13
46886;BME280;32622;48.202;11.326;2023-04-26T07:30:45;1019.41;;;10.16;29.34
46886;BME280;32622;48.202;11.326;2023-04-26T07:32:47;1019.57;;;9.65;29.65
46886;BME280;32622;48.202;11.326;2023-04-26T07:34:49;1019.28;;;10.81;29.11
46886;BME280;32622;48.202;11.326;2023-04-26T07:36:52;1019.40;;;10.22;28.73
46886;BME280;32622;48.202;11.326;2023-04-26T07:38:55;1019.25;;;10.80;28.88
46886;BME280;32622;48.202;11.326;2023-04-26T07:40:57;1019.23;;;10.84;28.97
46886;BME280;32622;48.202;11.326;2023-04-26T07:43:01;1019.26;;;10.60;28.01
46886;BME280;32622;48.202;11.326;2023-04-26T07:45:04;1019.29;;;10.55;28.92
46886;BME280;32622;48.202;11.326;2023-04-26T07:47:11;1019.21;;;10.88;29.49
46886;BME280;32622;48.202;11.326;2023-04-26T07:49:14;1019.27;;;10.48;28.15
46886;BME280;32622;48.202;11.326;2023-04-26T07:51:17;1019.15;;;10.96;27.77
46886;BME280;32622;48.202;11.326;2023-04-26T07:53:20;1019.07;;;11.52;27.68
46886;BME280;32622;48.202;11.326;2023-04-26T07:55:23;1019.18;;;10.98;27.68
46886;BME280;32622;48.202;11.326;2023-04-26T07:57:26;1018.99;;;11.86;26.50
46886;BME280;32622;48.202;11.326;2023-04-26T07:59:29;1019.01;;;11.56;26.66
46886;BME280;32622;48.202;11.326;2023-04-26T08:01:31;1019.05;;;11.60;26.69
46886;BME280;32622;48.202;11.326;2023-04-26T08:03:34;1019.01;;;11.70;26.26
46886;BME280;32622;48.202;11.326;2023-04-26T08:05:37;1018.93;;;12.08;26.54
46886;BME280;32622;48.202;11.326;2023-04-26T08:07:40;1018.81;;;12.64;26.27
46886;BME280;32622;48.202;11.326;2023-04-26T08:09:43;1018.80;;;12.50;26.44
46886;BME280;32622;48.202;11.326;2023-04-26T08:11:46;1018.85;;;12.32;26.13
46886;BME280;32622;48.202;11.326;2023-04-26T08:13:49;1018.59;;;13.22;26.20
46886;BME280;32622;48.202;11.326;2023-04-26T08:15:51;1018.63;;;13.12;25.01
46886;BME280;32622;48.202;11.326;2023-04-26T08:17:54;1018.66;;;12.97;24.99
46886;BME280;32622;48.202;11.326;2023-04-26T08:19:57;1018.46;;;13.85;25.12
46886;BME280;32622;48.202;11.326;2023-04-26T08:22:01;1018.59;;;13.32;24.16
46886;BME280;32622;48.202;11.326;2023-04-26T08:24:04;1018.51;;;13.59;24.68
46886;BME280;32622;48.202;11.326;2023-04-26T08:26:07;1018.49;;;13.70;24.50
46886;BME280;32622;48.202;11.326;2023-04-26T08:28:10;1018.62;;;12.95;23.85
46886;BME280;32622;48.202;11.326;2023-04-26T08:30:12;1018.54;;;13.18;23.55
46886;BME280;32622;48.202;11.326;2023-04-26T08:32:15;1018.66;;;12.67;25.59
46886;BME280;32622;48.202;11.326;2023-04-26T08:34:18;1018.56;;;12.97;24.27
46886;BME280;32622;48.202;11.326;2023-04-26T08:36:20;1018.63;;;12.80;23.02
46886;BME280;32622;48.202;11.326;2023-04-26T08:38:23;1018.44;;;13.67;22.39
46886;BME280;32622;48.202;11.326;2023-04-26T08:40:26;1018.39;;;13.93;23.15
46886;BME280;32622;48.202;11.326;2023-04-26T08:42:29;1018.60;;;13.04;22.58
46886;BME280;32622;48.202;11.326;2023-04-26T08:44:34;1018.60;;;12.89;23.36
46886;BME280;32622;48.202;11.326;2023-04-26T08:46:46;1018.93;;;11.70;24.03
46886;BME280;32622;48.202;11.326;2023-04-26T08:48:58;1018.86;;;12.05;24.23
46886;BME280;32622;48.202;11.326;2023-04-26T08:51:07;1018.67;;;12.68;23.75
46886;BME280;32622;48.202;11.326;2023-04-26T08:53:14;1018.53;;;13.21;23.65
46886;BME280;32622;48.202;11.326;2023-04-26T08:55:18;1018.52;;;13.30;22.70
46886;BME280;32622;48.202;11.326;2023-04-26T08:57:22;1018.48;;;13.57;21.97
46886;BME280;32622;48.202;11.326;2023-04-26T08:59:25;1018.59;;;13.20;22.07
46886;BME280;32622;48.202;11.326;2023-04-26T09:01:29;1018.66;;;13.03;22.74
46886;BME280;32622;48.202;11.326;2023-04-26T09:03:33;1018.43;;;14.08;22.44
46886;BME280;32622;48.202;11.326;2023-04-26T09:05:36;1018.49;;;13.64;22.39
46886;BME280;32622;48.202;11.326;2023-04-26T09:07:43;1018.63;;;13.15;21.73
46886;BME280;32622;48.202;11.326;2023-04-26T09:09:48;1018.51;;;13.62;22.37
46886;BME280;32622;48.202;11.326;2023-04-26T09:11:52;1018.65;;;12.81;21.46
46886;BME280;32622;48.202;11.326;2023-04-26T09:13:55;1018.40;;;13.95;21.68
46886;BME280;32622;48.202;11.326;2023-04-26T09:15:58;1018.57;;;13.32;21.82
46886;BME280;32622;48.202;11.326;2023-04-26T09:18:16;1018.54;;;13.52;22.31
46886;BME280;32622;48.202;11.326;2023-04-26T09:20:22;1018.50;;;13.75;21.58
46886;BME280;32622;48.202;11.326;2023-04-26T09:22:30;1018.38;;;14.19;22.80
46886;BME280;32622;48.202;11.326;2023-04-26T09:24:46;1018.43;;;13.80;22.60
46886;BME280;32622;48.202;11.326;2023-04-26T09:27:00;1018.32;;;14.15;22.56
46886;BME280;32622;48.202;11.326;2023-04-26T09:29:18;1018.36;;;13.97;22.73
46886;BME280;32622;48.202;11.326;2023-04-26T09:31:36;1018.32;;;14.18;22.67
46886;BME280;32622;48.202;11.326;2023-04-26T09:33:57;1018.33;;;14.26;23.41
46886;BME280;32622;48.202;11.326;2023-04-26T09:36:10;1018.29;;;14.21;22.25
46886;BME280;32622;48.202;11.326;2023-04-26T09:38:15;1018.43;;;13.63;22.18
46886;BME280;32622;48.202;11.326;2023-04-26T09:40:19;1018.31;;;14.17;22.16
46886;BME280;32622;48.202;11.326;2023-04-26T09:42:22;1018.40;;;13.61;22.32
46886;BME280;32622;48.202;11.326;2023-04-26T09:44:25;1018.45;;;13.65;21.14
46886;BME280;32622;48.202;11.326;2023-04-26T09:46:28;1018.45;;;13.78;21.88
46886;BME280;32622;48.202;11.326;2023-04-26T09:48:34;1018.31;;;14.31;21.85
46886;BME280;32622;48.202;11.326;2023-04-26T09:50:37;1018.32;;;14.31;21.74
46886;BME280;32622;48.202;11.326;2023-04-26T09:52:42;1018.40;;;13.99;21.51
46886;BME280;32622;48.202;11.326;2023-04-26T09:54:47;1018.36;;;14.24;22.19
46886;BME280;32622;48.202;11.326;2023-04-26T09:56:58;1018.27;;;14.59;20.97
46886;BME280;32622;48.202;11.326;2023-04-26T09:59:01;1018.21;;;14.79;20.49
46886;BME280;32622;48.202;11.326;2023-04-26T10:01:04;1018.16;;;14.80;20.68
46886;BME280;32622;48.202;11.326;2023-04-26T10:03:08;1018.28;;;14.33;20.54
46886;BME280;32622;48.202;11.326;2023-04-26T10:05:12;1018.11;;;14.95;20.84
46886;BME280;32622;48.202;11.326;2023-04-26T10:07:16;1018.25;;;14.21;20.17
46886;BME280;32622;48.202;11.326;2023-04-26T10:09:20;1018.33;;;13.70;20.91
46886;BME280;32622;48.202;11.326;2023-04-26T10:11:24;1018.21;;;14.22;21.45
46886;BME280;32622;48.202;11.326;2023-04-26T10:13:28;1018.11;;;14.85;21.36
46886;BME280;32622;48.202;11.326;2023-04-26T10:15:33;1018.15;;;14.46;20.81
46886;BME280;32622;48.202;11.326;2023-04-26T10:17:37;1018.14;;;14.46;21.32
46886;BME280;32622;48.202;11.326;2023-04-26T10:19:41;1018.10;;;14.48;21.25
46886;BME280;32622;48.202;11.326;2023-04-26T10:21:45;1018.23;;;13.62;21.30
46886;BME280;32622;48.202;11.326;2023-04-26T10:23:50;1018.05;;;14.33;21.57
46886;BME280;32622;48.202;11.326;2023-04-26T10:25:54;1018.17;;;13.89;22.00
46886;BME280;32622;48.202;11.326;2023-04-26T10:27:56;1018.06;;;14.24;21.20
46886;BME280;32622;48.202;11.326;2023-04-26T10:30:08;1018.13;;;13.90;21.76
46886;BME280;32622;48.202;11.326;2023-04-26T10:32:12;1018.03;;;14.29;21.92
46886;BME280;32622;48.202;11.326;2023-04-26T10:34:18;1018.18;;;13.41;21.63
46886;BME280;32622;48.202;11.326;2023-04-26T10:36:21;1017.93;;;14.10;21.18
46886;BME280;32622;48.202;11.326;2023-04-26T10:38:24;1017.90;;;14.02;22.26
46886;BME280;32622;48.202;11.326;2023-04-26T10:40:30;1018.10;;;13.07;21.12
46886;BME280;32622;48.202;11.326;2023-04-26T10:42:32;1018.28;;;12.24;22.36
46886;BME280;32622;48.202;11.326;2023-04-26T10:44:38;1017.97;;;13.61;21.72
46886;BME280;32622;48.202;11.326;2023-04-26T10:46:41;1018.09;;;13.19;22.82
46886;BME280;32622;48.202;11.326;2023-04-26T10:48:44;1018.10;;;13.10;22.37
46886;BME280;32622;48.202;11.326;2023-04-26T10:53:18;1018.04;;;13.31;22.42
46886;BME280;32622;48.202;11.326;2023-04-26T10:55:37;1017.96;;;13.39;22.35
46886;BME280;32622;48.202;11.326;2023-04-26T10:57:49;1017.82;;;14.32;23.22
46886;BME280;32622;48.202;11.326;2023-04-26T11:02:44;1017.86;;;13.74;21.67
46886;BME280;32622;48.202;11.326;2023-04-26T11:04:54;1017.80;;;13.84;21.36
46886;BME280;32622;48.202;11.326;2023-04-26T11:07:02;1018.08;;;12.55;22.65
46886;BME280;32622;48.202;11.326;2023-04-26T11:09:32;1017.87;;;13.35;21.67
46886;BME280;32622;48.202;11.326;2023-04-26T11:11:50;1017.71;;;13.87;22.55
46886;BME280;32622;48.202;11.326;2023-04-26T11:13:53;1017.79;;;13.12;22.29
46886;BME280;32622;48.202;11.326;2023-04-26T11:16:00;1017.66;;;13.56;22.10
46886;BME280;32622;48.202;11.326;2023-04-26T11:18:03;1017.62;;;13.56;22.76
46886;BME280;32622;48.202;11.326;2023-04-26T11:20:09;1017.56;;;13.77;21.33
46886;BME280;32622;48.202;11.326;2023-04-26T11:22:11;1017.58;;;13.85;21.38
46886;BME280;32622;48.202;11.326;2023-04-26T11:24:15;1017.52;;;14.11;20.69
46886;BME280;32622;48.202;11.326;2023-04-26T11:26:17;1017.46;;;14.41;21.59
46886;BME280;32622;48.202;11.326;2023-04-26T11:28:20;1017.53;;;13.80;21.96
46886;BME280;32622;48.202;11.326;2023-04-26T11:30:23;1017.36;;;14.53;22.60
46886;BME280;32622;48.202;11.326;2023-04-26T11:32:26;1017.32;;;14.51;22.04
46886;BME280;32622;48.202;11.326;2023-04-26T11:34:31;1017.42;;;14.24;22.03
46886;BME280;32622;48.202;11.326;2023-04-26T11:36:36;1017.68;;;13.17;22.11
46886;BME280;32622;48.202;11.326;2023-04-26T11:38:39;1017.79;;;12.55;23.20
46886;BME280;32622;48.202;11.326;2023-04-26T11:40:43;1017.61;;;13.58;22.21
46886;BME280;32622;48.202;11.326;2023-04-26T11:42:46;1017.79;;;12.85;22.23
46886;BME280;32622;48.202;11.326;2023-04-26T11:44:50;1017.70;;;13.26;22.68
46886;BME280;32622;48.202;11.326;2023-04-26T11:46:54;1017.62;;;13.65;21.97
46886;BME280;32622;48.202;11.326;2023-04-26T11:48:57;1017.77;;;12.89;23.42
46886;BME280;32622;48.202;11.326;2023-04-26T11:51:02;1017.86;;;12.42;22.23
46886;BME280;32622;48.202;11.326;2023-04-26T11:53:06;1017.75;;;13.05;22.72
46886;BME280;32622;48.202;11.326;2023-04-26T11:55:09;1017.91;;;12.52;23.06
46886;BME280;32622;48.202;11.326;2023-04-26T11:57:13;1017.78;;;12.73;22.88
46886;BME280;32622;48.202;11.326;2023-04-26T11:59:23;1017.88;;;12.55;22.98
46886;BME280;32622;48.202;11.326;2023-04-26T12:01:27;1017.64;;;13.62;22.59
46886;BME280;32622;48.202;11.326;2023-04-26T12:03:30;1017.53;;;14.08;21.99
46886;BME280;32622;48.202;11.326;2023-04-26T12:05:33;1017.66;;;13.64;22.25
46886;BME280;32622;48.202;11.326;2023-04-26T12:07:36;1017.74;;;13.30;22.39
46886;BME280;32622;48.202;11.326;2023-04-26T12:09:40;1018.01;;;12.22;22.67
46886;BME280;32622;48.202;11.326;2023-04-26T12:11:47;1018.50;;;10.30;24.32
46886;BME280;32622;48.202;11.326;2023-04-26T12:13:50;1018.30;;;11.30;24.59
46886;BME280;32622;48.202;11.326;2023-04-26T12:15:52;1018.27;;;11.43;24.15
46886;BME280;32622;48.202;11.326;2023-04-26T12:17:57;1018.21;;;11.77;22.68
46886;BME280;32622;48.202;11.326;2023-04-26T12:20:08;1018.17;;;12.04;22.90
46886;BME280;32622;48.202;11.326;2023-04-26T12:22:11;1018.30;;;11.52;23.26
46886;BME280;32622;48.202;11.326;2023-04-26T12:24:30;1018.14;;;12.01;22.92
46886;BME280;32622;48.202;11.326;2023-04-26T12:26:49;1018.23;;;11.63;23.41
46886;BME280;32622;48.202;11.326;2023-04-26T12:28:51;1018.06;;;12.26;23.11
46886;BME280;32622;48.202;11.326;2023-04-26T12:30:59;1017.99;;;12.28;23.54
46886;BME280;32622;48.202;11.326;2023-04-26T12:33:01;1017.88;;;12.87;22.06
46886;BME280;32622;48.202;11.326;2023-04-26T12:35:04;1017.77;;;13.01;22.07
46886;BME280;32622;48.202;11.326;2023-04-26T12:37:07;1017.87;;;12.20;21.77
46886;BME280;32622;48.202;11.326;2023-04-26T12:39:09;1018.04;;;11.88;22.84
46886;BME280;32622;48.202;11.326;2023-04-26T12:41:12;1017.74;;;12.76;22.38
46886;BME280;32622;48.202;11.326;2023-04-26T12:43:14;1017.69;;;12.77;21.67
46886;BME280;32622;48.202;11.326;2023-04-26T12:45:18;1017.63;;;13.00;21.99
46886;BME280;32622;48.202;11.326;2023-04-26T12:47:20;1017.72;;;12.40;22.00
46886;BME280;32622;48.202;11.326;2023-04-26T12:49:23;1017.42;;;13.78;21.75
46886;BME280;32622;48.202;11.326;2023-04-26T12:51:25;1017.41;;;13.67;20.49
46886;BME280;32622;48.202;11.326;2023-04-26T12:53:28;1017.28;;;14.11;20.21
46886;BME280;32622;48.202;11.326;2023-04-26T12:55:30;1017.38;;;13.47;20.68
46886;BME280;32622;48.202;11.326;2023-04-26T12:57:32;1017.37;;;13.20;21.33
46886;BME280;32622;48.202;11.326;2023-04-26T12:59:35;1017.40;;;13.05;21.24
46886;BME280;32622;48.202;11.326;2023-04-26T13:01:38;1017.26;;;13.81;21.43
46886;BME280;32622;48.202;11.326;2023-04-26T13:03:40;1017.28;;;13.65;20.13
46886;BME280;32622;48.202;11.326;2023-04-26T13:05:43;1017.13;;;13.90;20.46
46886;BME280;32622;48.202;11.326;2023-04-26T13:07:46;1017.33;;;12.95;20.27
46886;BME280;32622;48.202;11.326;2023-04-26T13:09:48;1017.07;;;14.00;19.84
46886;BME280;32622;48.202;11.326;2023-04-26T13:11:50;1016.86;;;14.80;19.58
46886;BME280;32622;48.202;11.326;2023-04-26T13:14:10;1016.86;;;14.88;19.96
46886;BME280;32622;48.202;11.326;2023-04-26T13:16:13;1016.96;;;14.57;19.86
46886;BME280;32622;48.202;11.326;2023-04-26T13:18:16;1016.78;;;15.21;19.75
46886;BME280;32622;48.202;11.326;2023-04-26T13:20:20;1016.89;;;14.65;19.89
46886;BME280;32622;48.202;11.326;2023-04-26T13:22:23;1016.90;;;14.47;19.21
46886;BME280;32622;48.202;11.326;2023-04-26T13:24:26;1016.92;;;14.77;18.59
46886;BME280;32622;48.202;11.326;2023-04-26T13:26:29;1016.76;;;15.26;18.58
46886;BME280;32622;48.202;11.326;2023-04-26T13:28:33;1016.74;;;15.28;18.72
46886;BME280;32622;48.202;11.326;2023-04-26T13:30:36;1016.80;;;14.93;19.15
46886;BME280;32622;48.202;11.326;2023-04-26T13:32:48;1016.84;;;14.54;19.17
46886;BME280;32622;48.202;11.326;2023-04-26T13:34:52;1017.16;;;13.25;19.99
46886;BME280;32622;48.202;11.326;2023-04-26T13:36:57;1017.08;;;13.33;20.89
46886;BME280;32622;48.202;11.326;2023-04-26T13:39:00;1016.97;;;13.99;21.11
46886;BME280;32622;48.202;11.326;2023-04-26T13:41:03;1016.87;;;14.41;20.80
46886;BME280;32622;48.202;11.326;2023-04-26T13:43:06;1016.97;;;13.83;20.63
46886;BME280;32622;48.202;11.326;2023-04-26T13:45:10;1016.94;;;13.74;19.89
46886;BME280;32622;48.202;11.326;2023-04-26T13:47:13;1016.86;;;13.98;20.12
46886;BME280;32622;48.202;11.326;2023-04-26T13:49:17;1016.90;;;13.85;19.93
46886;BME280;32622;48.202;11.326;2023-04-26T13:51:20;1016.86;;;13.97;20.48
46886;BME280;32622;48.202;11.326;2023-04-26T13:53:23;1016.89;;;13.85;20.74
46886;BME280;32622;48.202;11.326;2023-04-26T13:55:26;1016.78;;;14.10;20.64
46886;BME280;32622;48.202;11.326;2023-04-26T13:57:29;1016.72;;;14.12;20.50
46886;BME280;32622;48.202;11.326;2023-04-26T13:59:32;1016.90;;;13.58;20.25
46886;BME280;32622;48.202;11.326;2023-04-26T14:01:35;1016.64;;;14.77;19.77
46886;BME280;32622;48.202;11.326;2023-04-26T14:03:38;1017.37;;;11.67;22.23
46886;BME280;32622;48.202;11.326;2023-04-26T14:05:42;1017.23;;;12.16;22.29
46886;BME280;32622;48.202;11.326;2023-04-26T14:07:45;1017.29;;;11.75;22.14
46886;BME280;32622;48.202;11.326;2023-04-26T14:09:49;1017.24;;;12.16;23.14
46886;BME280;32622;48.202;11.326;2023-04-26T14:11:52;1017.26;;;11.98;22.70
46886;BME280;32622;48.202;11.326;2023-04-26T14:13:55;1017.24;;;11.91;22.38
46886;BME280;32622;48.202;11.326;2023-04-26T14:15:59;1017.30;;;12.04;22.80
46886;BME280;32622;48.202;11.326;2023-04-26T14:18:03;1017.18;;;12.56;21.92
46886;BME280;32622;48.202;11.326;2023-04-26T14:20:07;1017.10;;;13.02;21.25
46886;BME280;32622;48.202;11.326;2023-04-26T14:22:10;1016.99;;;13.68;21.64
46886;BME280;32622;48.202;11.326;2023-04-26T14:24:14;1016.95;;;13.76;21.00